Chaska, MN (55318)

11:33 AM CDT on September 03, 2015 (GMT -0500)
Hammers Haven | | Change Station
CLOSE
Current Station
Personal Weather Station
Location: Chaska, MN
Elevation: 935 ft
Nearby Weather Stations

Elev 935 ft 44.82 °N, 93.61 °W | Updated 19 seconds ago

Overcast
Overcast
77.9 °F
Feels Like 80 °F
N
8.0
Wind Variable Wind from NE
Gusts 11.0 mph

Today
High -- | Low -- °F
--% Chance of Precip.
Yesterday
High -- | Low -- °F
Precip. -- in
6:38 AM 7:48 PM
Waning Gibbous, 69% visible
Pressure 29.90 in
Visibility 6.0 miles
Clouds Overcast 700 ft
Heat Index 80 °F
Dew Point 75 °F
Humidity 91%
Rainfall 0.00 in
Snow Depth Not available.
UV 2 out of 12
Pollen 9.30 out of 12
Air Quality Not available.
Flu Activity Not available.
METAR KFCM 031553Z 09007KT 6SM HZ OVC007 24/21 A2991 RMK AO2 SLP124 T02390211
Pressure 29.90 in
Visibility 6.0 miles
Clouds Overcast 700 ft
Heat Index 80 °F
Dew Point 75 °F
Humidity 91%
Rainfall 0.00 in
Snow Depth Not available.
UV 2 out of 12
Pollen 9.30 out of 12
Air Quality Not available.
Flu Activity Not available.
METAR KFCM 031553Z 09007KT 6SM HZ OVC007 24/21 A2991 RMK AO2 SLP124 T02390211

10-Day Weather Forecast

×

Almanac

Astronomy

Sep. 03, 2015 Rise Set
Actual Time
Civil Twilight
Nautical Twilight
Astronomical Twilight
Moon
Length of Visible Light
Length of Day
Tomorrow will be .
, % of the Moon is Illuminated

Today's Extremes

State Highs State Lows

Community

WunderPhotos

Upload Photos

1,851,988 photos uploaded!

WunderBlogs® & News

Nearby

Air Quality

  Air Quality AQ Index Pollutant
Not available.

Snow Depth

Station Depth Elevation

Earthquake Activity

City Distance Mag. Time & Date
Minimum magnitude displayed is 2.5.

Coastal Water Temperatures

Place Temperature

Stations

Nearby Weather Stations

Station Location Temp. Windchill Dew Point Humidity Wind Precip. Elev Updated Type